Time;durP1;ratioP1;P1;durP2;ratioP2;P2;SDS_P1;SDS_P2;PMS_P1;PMS_P2;Temp;Humidity;BMP_temperature;BMP_pressure;BME280_temperature;BME280_humidity;BME280_pressure;Samples;Min_cycle;Max_cycle;Signal;HPM_P1;HPM_P2
2021/12/29 00:02:20;0.00;0.00;0.62;0.00;0.00;0.62;1.83;1.43;;;21.00;27.90;;;;;;2273202;61;20428;-57
2021/12/29 00:05:06;0.00;0.00;0.62;0.00;0.00;0.62;1.83;1.03;;;21.00;27.90;;;;;;2272134;61;20398;-59
2021/12/29 00:07:51;0.00;0.00;0.62;0.00;0.00;0.62;1.97;1.30;;;21.00;27.90;;;;;;2272734;61;20410;-58
2021/12/29 00:10:36;0.00;0.00;0.62;0.00;0.00;0.62;2.00;1.17;;;21.00;27.90;;;;;;2273329;61;20352;-59
2021/12/29 00:13:23;0.00;0.00;0.62;0.00;0.00;0.62;2.00;1.20;;;21.00;27.90;;;;;;2272761;61;20463;-56
2021/12/29 00:16:08;0.00;0.00;0.62;0.00;0.00;0.62;3.40;1.40;;;21.00;28.40;;;;;;2273211;61;20838;-58
2021/12/29 00:18:53;0.00;0.00;0.62;0.00;0.00;0.62;1.60;1.20;;;21.00;27.90;;;;;;2272060;61;20371;-59
2021/12/29 00:21:37;0.00;0.00;0.62;0.00;0.00;0.62;2.27;1.40;;;21.00;27.90;;;;;;2272719;61;20405;-56
2021/12/29 00:24:22;0.00;0.00;0.62;0.00;0.00;0.62;2.57;1.53;;;20.90;27.80;;;;;;2273121;61;20398;-57
2021/12/29 00:27:08;0.00;0.00;0.62;0.00;0.00;0.62;1.80;1.33;;;21.00;27.90;;;;;;2271580;61;20359;-59
2021/12/29 00:29:54;0.00;0.00;0.62;0.00;0.00;0.62;2.67;1.50;;;20.90;27.70;;;;;;2272286;61;20402;-58
2021/12/29 00:32:59;0.00;0.00;0.62;0.00;0.00;0.62;2.30;1.40;;;20.90;27.70;;;;;;2272649;61;20398;-57
2021/12/29 00:36:15;0.00;0.00;0.62;0.00;0.00;0.62;2.03;1.60;;;20.90;27.70;;;;;;2269792;61;20355;-56
2021/12/29 00:39:35;0.00;0.00;0.62;0.00;0.00;0.62;2.33;1.50;;;20.90;27.70;;;;;;2270525;61;20453;-59
2021/12/29 00:42:39;0.00;0.00;0.62;0.00;0.00;0.62;2.03;1.40;;;20.80;27.70;;;;;;2269380;61;20380;-58
2021/12/29 00:45:44;0.00;0.00;0.62;0.00;0.00;0.62;3.03;1.70;;;20.80;27.70;;;;;;2270396;61;20397;-58
2021/12/29 00:48:35;0.00;0.00;0.62;0.00;0.00;0.62;2.80;1.60;;;20.80;27.70;;;;;;2269017;61;20439;-58
2021/12/29 00:51:20;0.00;0.00;0.62;0.00;0.00;0.62;3.43;1.73;;;20.80;27.80;;;;;;2269942;61;20483;-57
2021/12/29 00:54:04;0.00;0.00;0.62;0.00;0.00;0.62;2.80;1.87;;;20.80;27.80;;;;;;2270472;61;20352;-58
2021/12/29 00:56:49;0.00;0.00;0.62;0.00;0.00;0.62;2.10;1.37;;;20.70;27.70;;;;;;2269155;61;20410;-58
2021/12/29 00:59:33;0.00;0.00;0.62;0.00;0.00;0.62;3.40;1.83;;;20.70;27.70;;;;;;2270004;61;20388;-58
2021/12/29 01:02:20;0.00;0.00;0.62;0.00;0.00;0.62;3.20;1.80;;;20.70;27.70;;;;;;2270433;61;20626;-61
2021/12/29 01:05:07;0.00;0.00;0.62;0.00;0.00;0.62;3.03;1.80;;;20.70;27.70;;;;;;2269685;61;20355;-57
2021/12/29 01:07:52;0.00;0.00;0.62;0.00;0.00;0.62;2.40;1.70;;;20.70;27.80;;;;;;2270290;61;20748;-59
2021/12/29 01:10:36;0.00;0.00;0.62;0.00;0.00;0.62;1.93;1.47;;;20.70;27.80;;;;;;2269349;61;20379;-58
2021/12/29 01:13:29;0.00;0.00;0.62;0.00;0.00;0.62;2.27;1.70;;;20.70;27.80;;;;;;2269925;61;20359;-61
2021/12/29 01:16:36;0.00;0.00;0.62;0.00;0.00;0.62;3.43;2.30;;;20.60;27.70;;;;;;2269949;61;20376;-61
2021/12/29 01:19:26;0.00;0.00;0.62;0.00;0.00;0.62;3.70;1.90;;;20.60;27.70;;;;;;2269096;61;20400;-60
2021/12/29 01:22:10;0.00;0.00;0.62;0.00;0.00;0.62;2.63;2.00;;;20.60;27.70;;;;;;2270075;61;20380;-59
2021/12/29 01:24:55;0.00;0.00;0.62;0.00;0.00;0.62;2.47;1.77;;;20.60;27.70;;;;;;2269532;61;20388;-56
2021/12/29 01:27:39;0.00;0.00;0.62;0.00;0.00;0.62;3.37;1.80;;;20.60;27.70;;;;;;2269726;61;20430;-58
2021/12/29 01:30:24;0.00;0.00;0.62;0.00;0.00;0.62;2.40;2.00;;;20.60;27.70;;;;;;2270266;61;20419;-56
2021/12/29 01:33:09;0.00;0.00;0.62;0.00;0.00;0.62;2.00;1.63;;;20.60;27.70;;;;;;2269033;61;21203;-59
2021/12/29 01:35:56;0.00;0.00;0.62;0.00;0.00;0.62;3.07;2.00;;;20.70;27.80;;;;;;2270080;61;20387;-58
2021/12/29 01:38:40;0.00;0.00;0.62;0.00;0.00;0.62;2.47;1.53;;;20.70;27.80;;;;;;2270121;61;20415;-58
2021/12/29 01:41:25;0.00;0.00;0.62;0.00;0.00;0.62;4.40;2.20;;;20.70;27.80;;;;;;2269116;61;20425;-60
2021/12/29 01:44:11;0.00;0.00;0.62;0.00;0.00;0.62;2.20;1.60;;;20.70;27.90;;;;;;2269950;61;20391;-59
2021/12/29 01:46:57;0.00;0.00;0.62;0.00;0.00;0.62;2.50;1.83;;;20.60;27.70;;;;;;2269738;61;20432;-59
2021/12/29 01:49:44;0.00;0.00;0.62;0.00;0.00;0.62;2.30;1.87;;;20.70;27.80;;;;;;2269757;61;20418;-60
2021/12/29 01:52:36;0.00;0.00;0.62;0.00;0.00;0.62;2.80;2.20;;;20.70;27.80;;;;;;2270167;61;20352;-56
2021/12/29 01:55:25;0.00;0.00;0.62;0.00;0.00;0.62;2.33;1.70;;;20.70;27.80;;;;;;2269041;61;20749;-60
2021/12/29 01:58:10;0.00;0.00;0.62;0.00;0.00;0.62;3.60;2.23;;;20.70;27.80;;;;;;2269798;61;20591;-58
2021/12/29 02:00:57;0.00;0.00;0.62;0.00;0.00;0.62;2.50;2.23;;;20.70;28.30;;;;;;2270150;61;20576;-58
2021/12/29 02:03:41;0.00;0.00;0.62;0.00;0.00;0.62;3.40;1.93;;;20.70;27.80;;;;;;2269081;61;20495;-60
2021/12/29 02:06:26;0.00;0.00;0.62;0.00;0.00;0.62;2.60;1.93;;;20.70;27.80;;;;;;2269796;61;20352;-60
2021/12/29 02:09:12;0.00;0.00;0.62;0.00;0.00;0.62;2.47;1.90;;;20.70;27.80;;;;;;2269604;61;20383;-60
2021/12/29 02:11:57;0.00;0.00;0.62;0.00;0.00;0.62;2.70;2.10;;;20.70;27.80;;;;;;2269313;61;20363;-60
2021/12/29 02:14:42;0.00;0.00;0.62;0.00;0.00;0.62;3.93;2.40;;;20.70;27.80;;;;;;2269858;61;20428;-60
2021/12/29 02:17:27;0.00;0.00;0.62;0.00;0.00;0.62;3.07;2.33;;;20.70;27.80;;;;;;2268988;61;20398;-58
2021/12/29 02:20:14;0.00;0.00;0.62;0.00;0.00;0.62;2.60;2.00;;;20.70;27.80;;;;;;2269813;61;20411;-59
2021/12/29 02:23:17;0.00;0.00;0.62;0.00;0.00;0.62;3.00;2.50;;;20.70;27.80;;;;;;2270020;61;20380;-59
2021/12/29 02:26:03;0.00;0.00;0.62;0.00;0.00;0.62;3.63;2.07;;;20.70;27.80;;;;;;2269003;61;20467;-58
2021/12/29 02:28:48;0.00;0.00;0.62;0.00;0.00;0.62;2.93;2.37;;;20.80;27.80;;;;;;2269606;61;20419;-57
2021/12/29 02:31:32;0.00;0.00;0.62;0.00;0.00;0.62;3.00;2.23;;;20.80;27.90;;;;;;2269481;61;20387;-58
2021/12/29 02:34:17;0.00;0.00;0.62;0.00;0.00;0.62;2.97;1.77;;;20.70;27.70;;;;;;2269347;61;20746;-59
2021/12/29 02:37:03;0.00;0.00;0.62;0.00;0.00;0.62;3.07;2.30;;;20.80;27.80;;;;;;2269627;61;20376;-58
2021/12/29 02:39:50;0.00;0.00;0.62;0.00;0.00;0.62;4.07;3.10;;;20.70;27.70;;;;;;2268987;61;20455;-57
2021/12/29 02:42:40;0.00;0.00;0.62;0.00;0.00;0.62;3.17;2.83;;;20.80;27.80;;;;;;2269565;61;20402;-58
2021/12/29 02:45:26;0.00;0.00;0.62;0.00;0.00;0.62;3.40;2.83;;;20.80;27.80;;;;;;2269976;61;20368;-58
2021/12/29 02:48:11;0.00;0.00;0.62;0.00;0.00;0.62;3.33;2.60;;;20.80;27.80;;;;;;2268678;61;20383;-59
2021/12/29 02:50:56;0.00;0.00;0.62;0.00;0.00;0.62;3.43;2.93;;;20.80;27.70;;;;;;2269763;61;20378;-57
2021/12/29 02:53:43;0.00;0.00;0.62;0.00;0.00;0.62;2.90;2.50;;;20.80;27.80;;;;;;2269620;61;20360;-58
2021/12/29 02:56:29;0.00;0.00;0.62;0.00;0.00;0.62;3.77;2.50;;;20.80;27.80;;;;;;2269180;61;20360;-58
2021/12/29 02:59:13;0.00;0.00;0.62;0.00;0.00;0.62;3.00;2.53;;;20.80;27.80;;;;;;2269911;61;20402;-58
2021/12/29 03:01:58;0.00;0.00;0.62;0.00;0.00;0.62;3.33;2.50;;;20.80;27.80;;;;;;2268791;61;20718;-57
2021/12/29 03:04:43;0.00;0.00;0.62;0.00;0.00;0.62;2.83;2.53;;;20.80;27.80;;;;;;2269527;61;20752;-58
2021/12/29 03:07:27;0.00;0.00;0.62;0.00;0.00;0.62;4.70;2.73;;;20.80;27.70;;;;;;2269949;61;20352;-56
2021/12/29 03:10:13;0.00;0.00;0.62;0.00;0.00;0.62;3.90;2.80;;;20.80;27.80;;;;;;2268700;61;20348;-58
2021/12/29 03:12:58;0.00;0.00;0.62;0.00;0.00;0.62;3.50;2.70;;;20.70;27.70;;;;;;2269650;61;20343;-55
2021/12/29 03:15:42;0.00;0.00;0.62;0.00;0.00;0.62;3.43;2.37;;;20.80;27.80;;;;;;2269625;61;20398;-59
2021/12/29 03:18:28;0.00;0.00;0.62;0.00;0.00;0.62;3.30;2.90;;;20.80;27.80;;;;;;2268957;61;20406;-60
2021/12/29 03:21:14;0.00;0.00;0.62;0.00;0.00;0.62;3.50;2.70;;;20.80;27.80;;;;;;2270097;61;20388;-59
2021/12/29 03:24:00;0.00;0.00;0.62;0.00;0.00;0.62;4.60;3.00;;;20.80;27.80;;;;;;2268703;61;20368;-56
2021/12/29 03:26:45;0.00;0.00;0.62;0.00;0.00;0.62;3.23;2.60;;;20.70;27.70;;;;;;2269457;61;20368;-59
2021/12/29 03:29:30;0.00;0.00;0.62;0.00;0.00;0.62;2.67;2.13;;;20.70;27.70;;;;;;2269743;61;20442;-59
2021/12/29 03:32:22;0.00;0.00;0.62;0.00;0.00;0.62;3.13;2.87;;;20.70;28.30;;;;;;2268928;61;20356;-58
2021/12/29 03:35:09;0.00;0.00;0.62;0.00;0.00;0.62;3.20;2.30;;;20.70;27.80;;;;;;2269610;61;20341;-59
2021/12/29 03:37:54;0.00;0.00;0.62;0.00;0.00;0.62;2.70;2.50;;;20.70;27.80;;;;;;2269416;61;20715;-56
2021/12/29 03:40:40;0.00;0.00;0.62;0.00;0.00;0.62;3.13;2.73;;;20.70;27.80;;;;;;2269505;61;20368;-59
2021/12/29 03:43:28;0.00;0.00;0.62;0.00;0.00;0.62;3.33;2.70;;;20.60;27.70;;;;;;2269787;61;20379;-59
2021/12/29 03:46:14;0.00;0.00;0.62;0.00;0.00;0.62;4.17;3.77;;;20.60;27.70;;;;;;2268658;61;20356;-57
2021/12/29 03:48:59;0.00;0.00;0.62;0.00;0.00;0.62;3.83;3.03;;;20.60;27.80;;;;;;2269388;61;20415;-57
2021/12/29 03:51:43;0.00;0.00;0.62;0.00;0.00;0.62;3.30;3.00;;;20.60;27.80;;;;;;2269720;61;20703;-58
2021/12/29 03:54:28;0.00;0.00;0.62;0.00;0.00;0.62;3.73;2.63;;;20.60;27.80;;;;;;2268790;61;20422;-56
2021/12/29 03:57:12;0.00;0.00;0.62;0.00;0.00;0.62;3.83;2.47;;;20.60;27.80;;;;;;2269466;61;20361;-59
2021/12/29 03:59:58;0.00;0.00;0.62;0.00;0.00;0.62;3.70;2.77;;;20.60;27.80;;;;;;2269743;61;20418;-59
2021/12/29 04:02:43;0.00;0.00;0.62;0.00;0.00;0.62;3.43;2.70;;;20.50;27.80;;;;;;2269281;61;20384;-60
2021/12/29 04:05:28;0.00;0.00;0.62;0.00;0.00;0.62;4.13;3.17;;;20.50;27.80;;;;;;2269678;61;20368;-61
2021/12/29 04:08:12;0.00;0.00;0.62;0.00;0.00;0.62;3.33;2.53;;;20.50;27.80;;;;;;2268737;61;20372;-56
2021/12/29 04:10:57;0.00;0.00;0.62;0.00;0.00;0.62;3.73;2.10;;;20.50;27.80;;;;;;2270186;61;20364;-61
2021/12/29 04:13:43;0.00;0.00;0.62;0.00;0.00;0.62;2.60;2.00;;;20.50;27.90;;;;;;2270359;61;20352;-59
2021/12/29 04:16:29;0.00;0.00;0.62;0.00;0.00;0.62;3.90;2.87;;;20.40;27.90;;;;;;2269452;61;20399;-58
2021/12/29 04:19:17;0.00;0.00;0.62;0.00;0.00;0.62;3.57;2.37;;;20.40;27.90;;;;;;2269982;61;20376;-59
2021/12/29 04:22:03;0.00;0.00;0.62;0.00;0.00;0.62;2.70;2.33;;;20.40;27.90;;;;;;2270551;61;20380;-60
2021/12/29 04:24:49;0.00;0.00;0.62;0.00;0.00;0.62;3.13;2.83;;;20.40;28.00;;;;;;2269636;61;20391;-60
2021/12/29 04:27:34;0.00;0.00;0.62;0.00;0.00;0.62;3.20;2.27;;;20.40;27.90;;;;;;2270189;61;20352;-61
2021/12/29 04:30:19;0.00;0.00;0.62;0.00;0.00;0.62;3.37;2.40;;;20.40;28.00;;;;;;2269787;61;20356;-59
2021/12/29 04:33:06;0.00;0.00;0.62;0.00;0.00;0.62;3.20;1.80;;;20.40;28.00;;;;;;2270039;61;20364;-59
2021/12/29 04:35:51;0.00;0.00;0.62;0.00;0.00;0.62;2.40;2.10;;;20.40;28.00;;;;;;2270469;61;20360;-55
2021/12/29 04:38:36;0.00;0.00;0.62;0.00;0.00;0.62;2.20;1.80;;;20.40;28.00;;;;;;2268785;61;20746;-60
2021/12/29 04:41:21;0.00;0.00;0.62;0.00;0.00;0.62;2.60;2.20;;;20.40;28.00;;;;;;2270017;61;20704;-54
2021/12/29 04:44:06;0.00;0.00;0.62;0.00;0.00;0.62;3.90;2.00;;;20.30;28.00;;;;;;2270510;61;20434;-62
2021/12/29 04:46:51;0.00;0.00;0.62;0.00;0.00;0.62;2.13;1.80;;;20.40;28.10;;;;;;2269380;61;20360;-58
2021/12/29 04:49:41;0.00;0.00;0.62;0.00;0.00;0.62;1.93;1.60;;;20.30;28.10;;;;;;2270082;61;20751;-55
2021/12/29 04:52:26;0.00;0.00;0.62;0.00;0.00;0.62;2.57;2.17;;;20.30;28.10;;;;;;2269690;61;20467;-59
2021/12/29 04:55:11;0.00;0.00;0.62;0.00;0.00;0.62;2.40;2.00;;;20.30;28.10;;;;;;2269972;61;20387;-57
2021/12/29 04:57:57;0.00;0.00;0.62;0.00;0.00;0.62;2.33;1.83;;;20.30;28.10;;;;;;2270264;61;20395;-57
2021/12/29 05:00:42;0.00;0.00;0.62;0.00;0.00;0.62;2.40;1.97;;;20.30;28.20;;;;;;2269135;61;20735;-59
2021/12/29 05:03:26;0.00;0.00;0.62;0.00;0.00;0.62;3.60;1.90;;;20.30;28.20;;;;;;2269979;61;20384;-58
2021/12/29 05:08:57;0.00;0.00;0.62;0.00;0.00;0.62;2.23;2.03;;;20.30;28.20;;;;;;2268963;61;20380;-59
2021/12/29 05:11:41;0.00;0.00;0.62;0.00;0.00;0.62;3.35;2.30;;;20.30;28.20;;;;;;2269695;61;20607;-57
2021/12/29 05:14:26;0.00;0.00;0.62;0.00;0.00;0.62;2.70;2.50;;;20.30;28.20;;;;;;2269749;61;20216;-58
2021/12/29 05:17:10;0.00;0.00;0.62;0.00;0.00;0.62;2.70;2.23;;;20.30;28.20;;;;;;2269442;61;20348;-59
2021/12/29 05:19:55;0.00;0.00;0.62;0.00;0.00;0.62;2.73;2.20;;;20.30;28.10;;;;;;2270374;61;20371;-57
2021/12/29 05:22:40;0.00;0.00;0.62;0.00;0.00;0.62;3.33;2.87;;;20.30;28.20;;;;;;2269082;61;20430;-58
2021/12/29 05:25:26;0.00;0.00;0.62;0.00;0.00;0.62;3.37;2.10;;;20.30;28.20;;;;;;2269738;61;20360;-59
2021/12/29 05:28:11;0.00;0.00;0.62;0.00;0.00;0.62;2.10;1.77;;;20.30;28.20;;;;;;2270169;61;20408;-60
2021/12/29 05:30:55;0.00;0.00;0.62;0.00;0.00;0.62;2.60;2.40;;;20.30;28.20;;;;;;2269189;61;20391;-58
2021/12/29 05:33:40;0.00;0.00;0.62;0.00;0.00;0.62;2.13;1.93;;;20.30;28.30;;;;;;2269911;61;20700;-58
2021/12/29 05:36:25;0.00;0.00;0.62;0.00;0.00;0.62;4.03;2.40;;;20.30;28.30;;;;;;2269991;61;20360;-58
2021/12/29 05:39:11;0.00;0.00;0.62;0.00;0.00;0.62;2.43;2.23;;;20.30;28.30;;;;;;2269482;61;20415;-58
2021/12/29 05:41:56;0.00;0.00;0.62;0.00;0.00;0.62;2.97;2.40;;;20.30;28.30;;;;;;2270256;61;20360;-56
2021/12/29 05:44:41;0.00;0.00;0.62;0.00;0.00;0.62;2.60;2.33;;;20.30;28.30;;;;;;2269027;61;20406;-56
2021/12/29 05:47:26;0.00;0.00;0.62;0.00;0.00;0.62;4.60;2.70;;;20.20;28.30;;;;;;2269782;61;20444;-59
2021/12/29 05:50:15;0.00;0.00;0.62;0.00;0.00;0.62;3.20;2.63;;;20.20;28.30;;;;;;2270156;61;20438;-56
2021/12/29 05:53:01;0.00;0.00;0.62;0.00;0.00;0.62;3.00;2.70;;;20.20;28.30;;;;;;2269148;61;20353;-56
2021/12/29 05:55:47;0.00;0.00;0.62;0.00;0.00;0.62;3.40;2.60;;;20.20;28.30;;;;;;2269896;61;20727;-59
2021/12/29 05:58:31;0.00;0.00;0.62;0.00;0.00;0.62;2.63;2.37;;;20.20;28.30;;;;;;2269642;61;20376;-57
2021/12/29 06:01:16;0.00;0.00;0.62;0.00;0.00;0.62;2.80;2.60;;;20.10;28.80;;;;;;2269884;61;20440;-60
2021/12/29 06:04:00;0.00;0.00;0.62;0.00;0.00;0.62;3.63;3.17;;;20.10;28.30;;;;;;2270047;61;20376;-59
2021/12/29 06:06:45;0.00;0.00;0.62;0.00;0.00;0.62;2.90;2.43;;;20.10;28.30;;;;;;2269115;61;20406;-60
2021/12/29 06:09:30;0.00;0.00;0.62;0.00;0.00;0.62;2.87;2.20;;;20.10;28.40;;;;;;2269751;61;20434;-57
2021/12/29 06:12:16;0.00;0.00;0.62;0.00;0.00;0.62;2.90;2.20;;;20.10;28.40;;;;;;2269615;61;20360;-60
2021/12/29 06:15:01;0.00;0.00;0.62;0.00;0.00;0.62;3.70;2.20;;;20.10;28.50;;;;;;2269133;61;20727;-57
2021/12/29 06:17:45;0.00;0.00;0.62;0.00;0.00;0.62;2.20;1.80;;;20.10;28.50;;;;;;2269582;61;20356;-58
2021/12/29 06:20:30;0.00;0.00;0.62;0.00;0.00;0.62;3.73;1.50;;;20.10;28.50;;;;;;2270135;61;20352;-60
2021/12/29 06:23:15;0.00;0.00;0.62;0.00;0.00;0.62;2.47;1.50;;;20.10;28.60;;;;;;2269482;61;20423;-60
2021/12/29 06:26:00;0.00;0.00;0.62;0.00;0.00;0.62;1.60;1.30;;;20.10;28.50;;;;;;2269814;61;20385;-60
2021/12/29 06:28:46;0.00;0.00;0.62;0.00;0.00;0.62;2.23;1.60;;;20.10;28.60;;;;;;2269335;61;20384;-60
2021/12/29 06:31:32;0.00;0.00;0.62;0.00;0.00;0.62;2.23;1.53;;;20.20;28.60;;;;;;2269581;61;20356;-59
2021/12/29 06:34:17;0.00;0.00;0.62;0.00;0.00;0.62;2.00;1.30;;;20.10;28.50;;;;;;2270217;61;20356;-58
2021/12/29 06:37:08;0.00;0.00;0.62;0.00;0.00;0.62;1.70;1.23;;;20.20;28.60;;;;;;2268952;61;20395;-58
2021/12/29 06:39:53;0.00;0.00;0.62;0.00;0.00;0.62;1.50;1.03;;;20.20;28.60;;;;;;2269657;61;20387;-59
2021/12/29 06:42:38;0.00;0.00;0.62;0.00;0.00;0.62;2.40;1.07;;;20.20;28.60;;;;;;2270004;61;20379;-59
2021/12/29 06:45:26;0.00;0.00;0.62;0.00;0.00;0.62;1.70;1.10;;;20.20;28.50;;;;;;2269174;61;20368;-59
2021/12/29 06:48:11;0.00;0.00;0.62;0.00;0.00;0.62;2.60;1.13;;;20.20;28.50;;;;;;2269742;61;20376;-58
2021/12/29 06:50:55;0.00;0.00;0.62;0.00;0.00;0.62;2.30;1.13;;;20.20;28.50;;;;;;2269404;61;20360;-60
2021/12/29 06:53:40;0.00;0.00;0.62;0.00;0.00;0.62;1.50;1.00;;;20.30;28.60;;;;;;2269626;61;20424;-59
2021/12/29 06:56:25;0.00;0.00;0.62;0.00;0.00;0.62;1.93;1.10;;;20.30;28.60;;;;;;2270044;61;20406;-60
2021/12/29 06:59:09;0.00;0.00;0.62;0.00;0.00;0.62;1.50;0.90;;;20.30;28.50;;;;;;2268702;61;20388;-59
2021/12/29 07:01:55;0.00;0.00;0.62;0.00;0.00;0.62;1.50;0.97;;;20.30;28.60;;;;;;2269669;61;20382;-60
2021/12/29 07:04:40;0.00;0.00;0.62;0.00;0.00;0.62;2.07;1.10;;;20.30;28.50;;;;;;2270116;61;20431;-58
2021/12/29 07:07:25;0.00;0.00;0.62;0.00;0.00;0.62;1.80;1.20;;;20.30;28.50;;;;;;2268855;61;20388;-60
2021/12/29 07:10:09;0.00;0.00;0.62;0.00;0.00;0.62;1.40;0.80;;;20.30;28.50;;;;;;2269620;61;20739;-59
2021/12/29 07:12:54;0.00;0.00;0.62;0.00;0.00;0.62;1.30;0.90;;;20.30;28.50;;;;;;2269355;61;20384;-58
2021/12/29 07:15:39;0.00;0.00;0.62;0.00;0.00;0.62;1.47;1.00;;;20.30;28.50;;;;;;2269128;61;20415;-59
2021/12/29 07:18:25;0.00;0.00;0.62;0.00;0.00;0.62;1.87;1.03;;;20.40;28.50;;;;;;2269941;61;20593;-59
2021/12/29 07:21:10;0.00;0.00;0.62;0.00;0.00;0.62;1.40;1.00;;;20.40;28.50;;;;;;2268855;61;20719;-60
2021/12/29 07:23:55;0.00;0.00;0.62;0.00;0.00;0.62;1.60;0.80;;;20.40;28.50;;;;;;2269463;61;20403;-59
2021/12/29 07:26:40;0.00;0.00;0.62;0.00;0.00;0.62;1.70;1.37;;;20.40;28.50;;;;;;2269927;61;20428;-60
2021/12/29 07:29:25;0.00;0.00;0.62;0.00;0.00;0.62;1.67;1.13;;;20.40;28.50;;;;;;2268754;61;20497;-59
2021/12/29 07:32:09;0.00;0.00;0.62;0.00;0.00;0.62;1.40;0.90;;;20.40;28.50;;;;;;2269571;61;20532;-58
2021/12/29 07:34:55;0.00;0.00;0.62;0.00;0.00;0.62;1.40;0.83;;;20.40;28.40;;;;;;2269555;61;20360;-59
2021/12/29 07:37:40;0.00;0.00;0.62;0.00;0.00;0.62;1.80;1.10;;;20.40;28.40;;;;;;2269009;61;20403;-56
2021/12/29 07:40:25;0.00;0.00;0.62;0.00;0.00;0.62;1.40;0.90;;;20.40;28.40;;;;;;2269902;61;20360;-58
2021/12/29 07:43:09;0.00;0.00;0.62;0.00;0.00;0.62;1.60;1.00;;;20.40;28.90;;;;;;2268676;61;20766;-60
2021/12/29 07:45:55;0.00;0.00;0.62;0.00;0.00;0.62;1.40;1.00;;;20.40;28.40;;;;;;2269747;61;20376;-59
2021/12/29 07:48:40;0.00;0.00;0.62;0.00;0.00;0.62;1.30;0.70;;;20.40;28.40;;;;;;2270266;61;20387;-59
2021/12/29 07:51:27;0.00;0.00;0.62;0.00;0.00;0.62;1.60;1.00;;;20.40;28.40;;;;;;2269435;61;20359;-57
2021/12/29 07:54:14;0.00;0.00;0.62;0.00;0.00;0.62;1.50;0.80;;;20.40;28.40;;;;;;2270275;61;20576;-59
2021/12/29 07:56:58;0.00;0.00;0.62;0.00;0.00;0.62;1.40;0.70;;;20.50;28.50;;;;;;2270185;61;20375;-58
2021/12/29 07:59:43;0.00;0.00;0.62;0.00;0.00;0.62;1.87;1.13;;;20.40;28.40;;;;;;2270200;61;20581;-58
2021/12/29 08:02:27;0.00;0.00;0.62;0.00;0.00;0.62;1.40;1.03;;;20.50;28.40;;;;;;2270404;61;20376;-59
2021/12/29 08:05:13;0.00;0.00;0.62;0.00;0.00;0.62;1.40;0.70;;;20.50;28.40;;;;;;2269346;61;20356;-59
2021/12/29 08:07:59;0.00;0.00;0.62;0.00;0.00;0.62;1.40;0.90;;;20.50;28.40;;;;;;2269995;61;20459;-59
2021/12/29 08:10:43;0.00;0.00;0.62;0.00;0.00;0.62;1.30;0.80;;;20.50;28.40;;;;;;2270395;61;20360;-59
2021/12/29 08:13:28;0.00;0.00;0.62;0.00;0.00;0.62;1.30;0.80;;;20.50;28.40;;;;;;2269319;61;20383;-58
2021/12/29 08:16:12;0.00;0.00;0.62;0.00;0.00;0.62;1.40;1.00;;;20.50;28.40;;;;;;2270126;61;20359;-58
2021/12/29 08:18:57;0.00;0.00;0.62;0.00;0.00;0.62;1.40;0.93;;;20.50;28.40;;;;;;2270385;61;20627;-59
2021/12/29 08:21:42;0.00;0.00;0.62;0.00;0.00;0.62;1.33;0.70;;;20.50;28.40;;;;;;2269828;61;20406;-60
2021/12/29 08:24:28;0.00;0.00;0.62;0.00;0.00;0.62;1.70;0.80;;;20.50;28.30;;;;;;2270337;61;20479;-57
2021/12/29 08:27:13;0.00;0.00;0.62;0.00;0.00;0.62;1.30;0.80;;;20.50;28.30;;;;;;2269436;61;20725;-59
2021/12/29 08:29:57;0.00;0.00;0.62;0.00;0.00;0.62;1.30;0.80;;;20.50;28.30;;;;;;2270171;61;20384;-58
2021/12/29 08:32:42;0.00;0.00;0.62;0.00;0.00;0.62;1.33;0.87;;;20.50;28.30;;;;;;2270300;61;20386;-57
2021/12/29 08:35:27;0.00;0.00;0.62;0.00;0.00;0.62;1.23;0.77;;;20.50;28.30;;;;;;2269436;61;20572;-59
2021/12/29 08:38:12;0.00;0.00;0.62;0.00;0.00;0.62;1.30;0.67;;;20.60;28.40;;;;;;2269888;61;20409;-59
2021/12/29 08:40:58;0.00;0.00;0.62;0.00;0.00;0.62;1.30;0.90;;;20.60;28.40;;;;;;2270288;61;20574;-59
2021/12/29 08:43:45;0.00;0.00;0.62;0.00;0.00;0.62;1.30;0.80;;;20.50;28.30;;;;;;2269732;61;20777;-58
2021/12/29 08:46:31;0.00;0.00;0.62;0.00;0.00;0.62;1.57;0.80;;;20.60;28.40;;;;;;2269972;61;20401;-59
2021/12/29 08:49:16;0.00;0.00;0.62;0.00;0.00;0.62;1.50;0.80;;;20.60;28.30;;;;;;2269611;61;20400;-59
2021/12/29 08:52:00;0.00;0.00;0.62;0.00;0.00;0.62;1.30;0.70;;;20.60;28.30;;;;;;2269991;61;20433;-58
2021/12/29 08:54:45;0.00;0.00;0.62;0.00;0.00;0.62;1.30;0.70;;;20.60;28.30;;;;;;2270286;61;20398;-58
2021/12/29 08:57:31;0.00;0.00;0.62;0.00;0.00;0.62;1.30;0.90;;;20.60;28.30;;;;;;2268821;61;20410;-56
2021/12/29 09:00:17;0.00;0.00;0.62;0.00;0.00;0.62;1.30;0.70;;;20.60;28.30;;;;;;2269936;61;20349;-60
2021/12/29 09:03:02;0.00;0.00;0.62;0.00;0.00;0.62;1.23;0.70;;;20.60;28.30;;;;;;2270358;61;20614;-58
2021/12/29 09:05:48;0.00;0.00;0.62;0.00;0.00;0.62;1.30;0.80;;;20.60;28.30;;;;;;2269309;61;20352;-56
2021/12/29 09:08:32;0.00;0.00;0.62;0.00;0.00;0.62;1.20;0.70;;;20.60;28.30;;;;;;2269929;61;20384;-57
2021/12/29 09:11:17;0.00;0.00;0.62;0.00;0.00;0.62;1.50;0.70;;;20.60;28.30;;;;;;2269813;61;20356;-59
2021/12/29 09:14:03;0.00;0.00;0.62;0.00;0.00;0.62;1.30;0.70;;;20.60;28.30;;;;;;2269815;61;20421;-58
2021/12/29 09:16:48;0.00;0.00;0.62;0.00;0.00;0.62;1.40;0.83;;;20.60;28.30;;;;;;2270167;61;20711;-59
2021/12/29 09:19:39;0.00;0.00;0.62;0.00;0.00;0.62;1.30;0.77;;;20.60;28.30;;;;;;2269268;61;20433;-58
2021/12/29 09:22:23;0.00;0.00;0.62;0.00;0.00;0.62;1.33;0.87;;;20.60;28.30;;;;;;2269827;61;20399;-59
2021/12/29 09:25:09;0.00;0.00;0.62;0.00;0.00;0.62;1.30;0.70;;;20.60;28.30;;;;;;2270168;61;20387;-59
2021/12/29 09:27:53;0.00;0.00;0.62;0.00;0.00;0.62;1.60;0.87;;;20.60;28.30;;;;;;2269195;61;20437;-58
2021/12/29 09:30:43;0.00;0.00;0.62;0.00;0.00;0.62;1.30;0.70;;;20.60;28.30;;;;;;2269857;61;20359;-58
2021/12/29 09:33:28;0.00;0.00;0.62;0.00;0.00;0.62;1.47;0.70;;;20.60;28.30;;;;;;2269595;61;20353;-58
2021/12/29 09:36:15;0.00;0.00;0.62;0.00;0.00;0.62;1.30;0.80;;;20.60;28.30;;;;;;2269669;61;20352;-57
2021/12/29 09:39:00;0.00;0.00;0.62;0.00;0.00;0.62;1.20;0.73;;;20.70;28.30;;;;;;2270038;61;20376;-56
2021/12/29 09:41:44;0.00;0.00;0.62;0.00;0.00;0.62;1.40;0.90;;;20.70;28.30;;;;;;2269036;61;20356;-57
2021/12/29 09:44:31;0.00;0.00;0.62;0.00;0.00;0.62;1.30;0.70;;;20.70;28.30;;;;;;2269377;61;20759;-59
2021/12/29 09:47:19;0.00;0.00;0.62;0.00;0.00;0.62;1.20;0.70;;;20.60;28.20;;;;;;2270107;61;20376;-56
2021/12/29 09:50:09;0.00;0.00;0.62;0.00;0.00;0.62;1.27;0.73;;;20.70;28.30;;;;;;2269044;61;20348;-58
2021/12/29 09:52:54;0.00;0.00;0.62;0.00;0.00;0.62;1.33;0.73;;;20.70;28.30;;;;;;2269901;61;20741;-58
2021/12/29 09:55:40;0.00;0.00;0.62;0.00;0.00;0.62;1.30;0.80;;;20.70;28.30;;;;;;2269657;61;20732;-60
2021/12/29 09:58:24;0.00;0.00;0.62;0.00;0.00;0.62;1.13;0.60;;;20.70;28.30;;;;;;2269224;61;20380;-60
2021/12/29 10:01:10;0.00;0.00;0.62;0.00;0.00;0.62;1.40;0.80;;;20.70;28.30;;;;;;2270214;61;20356;-57
2021/12/29 10:03:56;0.00;0.00;0.62;0.00;0.00;0.62;1.40;0.90;;;20.70;28.30;;;;;;2269228;61;20638;-59
2021/12/29 10:06:41;0.00;0.00;0.62;0.00;0.00;0.62;1.50;0.70;;;20.70;28.30;;;;;;2269472;61;20360;-60
2021/12/29 10:09:26;0.00;0.00;0.62;0.00;0.00;0.62;1.40;0.80;;;20.70;28.30;;;;;;2270118;61;20433;-57
2021/12/29 10:12:20;0.00;0.00;0.62;0.00;0.00;0.62;1.20;0.73;;;20.70;28.30;;;;;;2269024;61;20612;-60
2021/12/29 10:15:06;0.00;0.00;0.62;0.00;0.00;0.62;1.37;0.67;;;20.70;28.30;;;;;;2269412;61;20357;-60
2021/12/29 10:17:58;0.00;0.00;0.62;0.00;0.00;0.62;1.30;0.70;;;20.70;28.30;;;;;;2269269;61;20371;-60
2021/12/29 10:20:51;0.00;0.00;0.62;0.00;0.00;0.62;1.20;0.70;;;20.80;28.30;;;;;;2269767;61;20391;-59
2021/12/29 10:23:38;0.00;0.00;0.62;0.00;0.00;0.62;1.40;0.70;;;20.80;28.30;;;;;;2269913;61;20387;-59
2021/12/29 10:26:29;0.00;0.00;0.62;0.00;0.00;0.62;1.20;0.60;;;20.80;28.30;;;;;;2268893;61;20384;-57
2021/12/29 10:29:18;0.00;0.00;0.62;0.00;0.00;0.62;1.30;0.70;;;20.80;28.30;;;;;;2269542;61;20375;-58
2021/12/29 10:32:04;0.00;0.00;0.62;0.00;0.00;0.62;1.20;0.67;;;20.80;28.30;;;;;;2270019;61;20379;-58
2021/12/29 10:34:51;0.00;0.00;0.62;0.00;0.00;0.62;1.43;0.77;;;20.80;28.30;;;;;;2269271;61;20352;-59
2021/12/29 10:37:37;0.00;0.00;0.62;0.00;0.00;0.62;1.30;0.70;;;20.80;28.30;;;;;;2269838;61;20398;-59
2021/12/29 10:40:28;0.00;0.00;0.62;0.00;0.00;0.62;1.20;0.60;;;20.80;28.30;;;;;;2269446;61;20364;-56
2021/12/29 10:43:13;0.00;0.00;0.62;0.00;0.00;0.62;1.50;0.70;;;20.80;28.30;;;;;;2269579;61;20372;-60
2021/12/29 10:45:59;0.00;0.00;0.62;0.00;0.00;0.62;1.20;0.60;;;20.80;28.30;;;;;;2269986;61;20735;-59
2021/12/29 10:48:47;0.00;0.00;0.62;0.00;0.00;0.62;1.30;0.60;;;20.80;28.30;;;;;;2268681;61;20381;-58
2021/12/29 10:51:35;0.00;0.00;0.62;0.00;0.00;0.62;1.20;0.67;;;20.80;28.30;;;;;;2269655;61;20411;-58
2021/12/29 10:54:24;0.00;0.00;0.62;0.00;0.00;0.62;1.30;0.70;;;20.80;28.30;;;;;;2270002;61;20356;-57
2021/12/29 10:57:15;0.00;0.00;0.62;0.00;0.00;0.62;1.20;0.70;;;20.80;28.30;;;;;;2269203;61;20364;-60
2021/12/29 10:59:59;0.00;0.00;0.62;0.00;0.00;0.62;1.20;0.60;;;20.80;28.20;;;;;;2269935;61;20384;-58